createdAt,value
2023-04-09T00:03:26.581Z,24.13
2023-04-09T00:07:28.330Z,24.65
2023-04-09T00:11:30.308Z,24.88
2023-04-09T00:15:32.141Z,24.20
2023-04-09T00:19:33.823Z,26.15
2023-04-09T00:23:36.029Z,26.52
2023-04-09T00:27:37.666Z,25.80
2023-04-09T00:31:39.340Z,25.35
2023-04-09T00:35:41.149Z,24.27
2023-04-09T00:39:42.935Z,26.00
2023-04-09T00:43:44.578Z,27.17
2023-04-09T00:47:46.889Z,26.50
2023-04-09T00:51:48.996Z,28.37
2023-04-09T00:55:50.730Z,28.08
2023-04-09T00:59:52.409Z,28.92
2023-04-09T01:03:54.673Z,29.67
2023-04-09T01:08:11.119Z,30.80
2023-04-09T01:12:25.539Z,29.55
2023-04-09T01:16:32.551Z,31.92
2023-04-09T01:20:43.772Z,29.20
2023-04-09T01:25:02.879Z,29.70
2023-04-09T01:29:07.072Z,28.25
2023-04-09T01:33:10.242Z,28.85
2023-04-09T01:41:18.112Z,28.58
2023-04-09T01:45:20.861Z,25.63
2023-04-09T01:49:22.715Z,26.92
2023-04-09T01:53:28.190Z,26.75
2023-04-09T01:57:31.014Z,24.77
2023-04-09T02:01:45.186Z,28.05
2023-04-09T02:05:55.830Z,28.67
2023-04-09T02:10:00.843Z,28.67
2023-04-09T02:14:04.213Z,28.05
2023-04-09T02:18:20.220Z,26.88
2023-04-09T02:22:21.893Z,29.98
2023-04-09T02:26:24.473Z,31.40
2023-04-09T02:30:26.195Z,29.52
2023-04-09T02:34:28.294Z,30.45
2023-04-09T02:38:29.994Z,30.38
2023-04-09T02:42:31.622Z,29.60
2023-04-09T02:46:33.487Z,29.92
2023-04-09T02:50:35.309Z,28.35
2023-04-09T02:54:37.048Z,29.75
2023-04-09T02:58:38.742Z,28.92
2023-04-09T03:02:40.536Z,28.60
2023-04-09T03:06:42.295Z,29.63
2023-04-09T03:10:44.013Z,29.35
2023-04-09T03:14:45.896Z,27.50
2023-04-09T03:18:47.637Z,31.23
2023-04-09T03:22:49.357Z,33.38
2023-04-09T03:26:51.225Z,32.22
2023-04-09T03:30:52.980Z,30.30
2023-04-09T03:34:54.687Z,32.15
2023-04-09T03:38:56.408Z,33.08
2023-04-09T03:42:58.136Z,30.30
2023-04-09T03:46:59.923Z,30.98
2023-04-09T03:51:04.403Z,30.20
2023-04-09T03:55:06.665Z,30.17
2023-04-09T03:59:08.349Z,24.17
2023-04-09T04:03:12.369Z,30.65
2023-04-09T04:07:14.326Z,31.77
2023-04-09T04:11:16.096Z,30.38
2023-04-09T04:15:19.622Z,31.40
2023-04-09T04:19:21.508Z,33.17
2023-04-09T04:23:23.375Z,33.20
2023-04-09T04:27:25.243Z,32.17
2023-04-09T04:31:26.913Z,33.53
2023-04-09T04:35:28.608Z,31.33
2023-04-09T04:39:31.231Z,32.22
2023-04-09T04:43:33.172Z,32.30
2023-04-09T04:47:35.116Z,30.45
2023-04-09T04:51:36.839Z,32.05
2023-04-09T04:55:41.734Z,31.70
2023-04-09T04:59:44.397Z,31.00
2023-04-09T05:03:46.222Z,27.65
2023-04-09T05:07:47.953Z,29.67
2023-04-09T05:11:49.755Z,30.25
2023-04-09T05:15:51.754Z,28.88
2023-04-09T05:19:54.291Z,30.13
2023-04-09T05:23:56.431Z,29.98
2023-04-09T05:27:58.412Z,30.40
2023-04-09T05:32:00.723Z,28.77
2023-04-09T05:36:02.594Z,28.83
2023-04-09T05:40:04.832Z,29.10
2023-04-09T05:44:06.525Z,29.67
2023-04-09T05:48:09.870Z,28.65
2023-04-09T05:52:11.562Z,29.02
2023-04-09T05:56:15.064Z,28.42
2023-04-09T06:00:18.540Z,30.25
2023-04-09T06:04:20.806Z,28.67
2023-04-09T06:08:22.621Z,25.83
2023-04-09T06:12:24.285Z,28.10
2023-04-09T06:16:26.164Z,27.15
2023-04-09T06:20:27.851Z,26.58
2023-04-09T06:24:32.295Z,26.08
2023-04-09T06:28:34.009Z,25.75
2023-04-09T06:32:46.774Z,26.80
2023-04-09T06:36:52.970Z,25.98
2023-04-09T06:40:56.907Z,25.05
2023-04-09T06:44:58.573Z,26.13
2023-04-09T06:49:00.242Z,25.50
2023-04-09T06:53:02.554Z,25.17
2023-04-09T06:57:04.266Z,24.63
2023-04-09T07:01:06.394Z,25.60
2023-04-09T07:05:08.960Z,22.98
2023-04-09T07:09:10.639Z,16.42
2023-04-09T07:13:12.312Z,15.73
2023-04-09T07:17:14.037Z,13.98
2023-04-09T07:21:16.300Z,12.57
2023-04-09T07:25:18.067Z,12.53
2023-04-09T07:29:21.030Z,11.15
2023-04-09T07:33:22.829Z,8.35
2023-04-09T07:37:24.514Z,9.02
2023-04-09T07:41:26.244Z,8.02
2023-04-09T07:45:28.000Z,8.10
2023-04-09T07:49:29.739Z,6.90
2023-04-09T07:53:31.426Z,6.97
2023-04-09T07:57:33.289Z,6.03
2023-04-09T08:01:35.011Z,5.80
2023-04-09T08:05:38.014Z,6.20
2023-04-09T08:09:39.716Z,6.07
2023-04-09T08:13:41.673Z,5.85
2023-04-09T08:17:43.437Z,4.82
2023-04-09T08:21:46.107Z,5.30
2023-04-09T08:25:47.810Z,5.43
2023-04-09T08:29:49.671Z,4.90
2023-04-09T08:33:53.529Z,5.20
2023-04-09T08:37:56.792Z,5.55
2023-04-09T08:42:02.835Z,4.30
2023-04-09T08:46:04.663Z,5.20
2023-04-09T08:50:07.881Z,6.10
2023-04-09T08:54:09.724Z,4.43
2023-04-09T08:58:11.493Z,4.40
2023-04-09T09:02:14.135Z,5.10
2023-04-09T09:06:23.616Z,4.72
2023-04-09T09:10:37.816Z,5.25
2023-04-09T09:14:39.486Z,5.22
2023-04-09T09:18:43.153Z,4.97
2023-04-09T09:22:55.965Z,4.15
2023-04-09T09:26:58.812Z,4.63
2023-04-09T09:31:12.408Z,4.80
2023-04-09T09:35:14.232Z,4.85
2023-04-09T09:39:17.714Z,4.38
2023-04-09T09:43:19.547Z,4.88
2023-04-09T09:47:22.695Z,5.05
2023-04-09T09:51:29.301Z,3.70
2023-04-09T09:55:32.997Z,4.10
2023-04-09T09:59:39.122Z,5.15
2023-04-09T10:03:44.050Z,4.25
2023-04-09T10:07:46.537Z,5.13
2023-04-09T10:11:49.584Z,4.38
2023-04-09T10:20:22.827Z,4.85
2023-04-09T10:24:25.173Z,4.30
2023-04-09T10:28:27.221Z,5.03
2023-04-09T10:32:36.298Z,3.80
2023-04-09T10:36:38.084Z,5.28
2023-04-09T10:40:53.337Z,4.43
2023-04-09T10:45:06.566Z,4.30
2023-04-09T10:49:19.181Z,4.28
2023-04-09T10:53:26.349Z,4.53
2023-04-09T10:57:28.138Z,4.47
2023-04-09T11:01:30.830Z,3.70
2023-04-09T11:05:34.592Z,4.28
2023-04-09T11:09:36.612Z,4.70
2023-04-09T11:13:41.555Z,4.73
2023-04-09T11:17:43.882Z,4.03
2023-04-09T11:21:46.352Z,4.30
2023-04-09T11:25:52.271Z,4.50
2023-04-09T11:29:56.794Z,4.03
2023-04-09T11:33:58.649Z,4.32
2023-04-09T11:38:00.413Z,3.90
2023-04-09T11:42:02.343Z,4.25
2023-04-09T11:46:04.633Z,3.97
2023-04-09T11:50:08.004Z,3.85
2023-04-09T11:54:12.330Z,4.05
2023-04-09T11:58:14.378Z,3.45
2023-04-09T12:02:19.229Z,3.70
2023-04-09T12:06:25.684Z,4.00
2023-04-09T12:10:31.957Z,3.50
2023-04-09T12:14:34.668Z,3.80
2023-04-09T12:18:38.013Z,4.00
2023-04-09T12:22:41.270Z,4.25
2023-04-09T12:26:43.621Z,4.55
2023-04-09T12:30:45.463Z,3.20
2023-04-09T12:34:47.504Z,4.13
2023-04-09T12:38:49.546Z,3.80
2023-04-09T12:42:51.651Z,3.83
2023-04-09T12:46:53.618Z,3.83
2023-04-09T12:50:55.341Z,3.50
2023-04-09T12:54:56.979Z,4.15
2023-04-09T12:58:58.676Z,4.25
2023-04-09T13:03:00.491Z,3.80
2023-04-09T13:07:04.331Z,4.13
2023-04-09T13:11:06.049Z,3.92
2023-04-09T13:15:07.942Z,4.18
2023-04-09T13:19:10.042Z,4.03
2023-04-09T13:23:11.792Z,4.30
2023-04-09T13:27:14.229Z,4.45
2023-04-09T13:31:16.034Z,4.35
2023-04-09T13:35:19.038Z,3.65
2023-04-09T13:39:20.829Z,3.80
2023-04-09T13:43:27.845Z,4.05
2023-04-09T13:47:29.676Z,3.85
2023-04-09T13:51:31.534Z,3.80
2023-04-09T13:55:33.256Z,4.15
2023-04-09T13:59:34.931Z,4.22
2023-04-09T14:03:40.090Z,3.78
2023-04-09T14:07:41.804Z,4.13
2023-04-09T14:11:43.457Z,4.68
2023-04-09T14:15:46.193Z,4.05
2023-04-09T14:19:47.888Z,4.05
2023-04-09T14:23:49.703Z,4.18
2023-04-09T14:27:52.034Z,3.90
2023-04-09T14:31:55.989Z,4.65
2023-04-09T14:35:59.092Z,4.00
2023-04-09T14:40:02.430Z,4.30
2023-04-09T14:44:04.319Z,3.55
2023-04-09T14:48:06.386Z,4.30
2023-04-09T14:52:08.395Z,4.53
2023-04-09T14:56:13.102Z,3.83
2023-04-09T15:00:15.400Z,4.20
2023-04-09T15:04:19.997Z,4.50
2023-04-09T15:08:21.726Z,4.57
2023-04-09T15:12:23.394Z,4.65
2023-04-09T15:16:27.405Z,4.07
2023-04-09T15:20:29.250Z,3.97
2023-04-09T15:24:31.416Z,4.57
2023-04-09T15:28:36.323Z,3.90
2023-04-09T15:32:38.191Z,3.90
2023-04-09T15:36:40.009Z,4.70
2023-04-09T15:40:42.431Z,4.78
2023-04-09T15:44:44.090Z,4.85
2023-04-09T15:48:45.731Z,4.13
2023-04-09T15:52:47.424Z,4.57
2023-04-09T15:56:49.826Z,3.60
2023-04-09T16:00:51.709Z,3.85
2023-04-09T16:04:53.376Z,4.38
2023-04-09T16:08:55.466Z,3.42
2023-04-09T16:12:57.425Z,3.70
2023-04-09T16:16:59.204Z,4.25
2023-04-09T16:21:01.732Z,3.28
2023-04-09T16:25:06.024Z,4.65
2023-04-09T16:29:08.053Z,3.85
2023-04-09T16:33:10.624Z,3.87
2023-04-09T16:37:12.280Z,3.65
2023-04-09T16:41:14.072Z,3.83
2023-04-09T16:45:16.208Z,3.33
2023-04-09T16:49:17.930Z,4.17
2023-04-09T16:53:19.771Z,3.97
2023-04-09T16:57:21.541Z,4.50
2023-04-09T17:01:23.257Z,4.00
2023-04-09T17:05:25.054Z,3.65
2023-04-09T17:09:27.036Z,4.50
2023-04-09T17:13:30.120Z,4.33
2023-04-09T17:17:33.314Z,4.90
2023-04-09T17:21:35.045Z,4.30
2023-04-09T17:25:37.006Z,3.72
2023-04-09T17:29:38.991Z,4.67
2023-04-09T17:33:42.215Z,4.60
2023-04-09T17:37:43.886Z,4.40
2023-04-09T17:41:45.777Z,3.78
2023-04-09T17:45:47.558Z,5.32
2023-04-09T17:49:49.246Z,4.88
2023-04-09T17:53:53.716Z,6.22
2023-04-09T17:57:58.034Z,6.63
2023-04-09T18:01:59.998Z,6.57
2023-04-09T18:06:02.329Z,5.70
2023-04-09T18:10:04.594Z,4.33
2023-04-09T18:14:08.047Z,4.18
2023-04-09T18:18:09.667Z,4.90
2023-04-09T18:22:11.461Z,6.10
2023-04-09T18:26:13.173Z,5.80
2023-04-09T18:30:14.907Z,4.65
2023-04-09T18:34:16.734Z,5.00
2023-04-09T18:38:18.509Z,5.00
2023-04-09T18:42:20.285Z,5.18
2023-04-09T18:46:25.205Z,5.32
2023-04-09T18:50:26.914Z,6.47
2023-04-09T18:54:28.860Z,7.10
2023-04-09T18:58:30.588Z,7.32
2023-04-09T19:02:32.651Z,10.40
2023-04-09T19:06:35.993Z,13.87
2023-04-09T19:10:38.329Z,15.25
2023-04-09T19:14:42.843Z,6.63
2023-04-09T19:18:44.777Z,6.88
2023-04-09T19:22:48.206Z,5.40
2023-04-09T19:26:50.827Z,6.05
2023-04-09T19:30:53.050Z,7.90
2023-04-09T19:34:54.689Z,15.33
2023-04-09T19:38:56.491Z,15.88
2023-04-09T19:42:58.254Z,6.38
2023-04-09T19:47:00.043Z,6.50
2023-04-09T19:51:05.291Z,6.57
2023-04-09T19:55:07.658Z,6.72
2023-04-09T19:59:09.348Z,6.70
2023-04-09T20:03:11.315Z,6.72
2023-04-09T20:07:13.187Z,6.47
2023-04-09T20:11:19.026Z,7.35
2023-04-09T20:15:20.813Z,7.20
2023-04-09T20:19:22.732Z,7.00
2023-04-09T20:23:24.470Z,7.20
2023-04-09T20:27:27.002Z,7.18
2023-04-09T20:31:29.121Z,7.07
2023-04-09T20:35:35.288Z,7.35
2023-04-09T20:39:37.252Z,7.38
2023-04-09T20:43:39.141Z,11.10
2023-04-09T20:47:41.037Z,20.90
2023-04-09T20:51:42.808Z,7.82
2023-04-09T20:55:45.862Z,8.77
2023-04-09T20:59:48.313Z,7.57
2023-04-09T21:03:50.264Z,7.15
2023-04-09T21:07:53.136Z,7.10
2023-04-09T21:11:54.946Z,8.13
2023-04-09T21:16:17.076Z,7.68
2023-04-09T21:20:19.441Z,6.95
2023-04-09T21:24:21.277Z,8.27
2023-04-09T21:28:23.014Z,7.15
2023-04-09T21:32:25.127Z,7.00
2023-04-09T21:36:27.161Z,6.57
2023-04-09T21:40:31.966Z,7.18
2023-04-09T21:44:33.782Z,6.70
2023-04-09T21:48:35.545Z,7.50
2023-04-09T21:52:37.408Z,6.57
2023-04-09T21:56:39.279Z,7.18
2023-04-09T22:00:41.301Z,7.88
2023-04-09T22:04:43.067Z,6.10
2023-04-09T22:08:55.743Z,6.57
2023-04-09T22:12:58.763Z,6.63
2023-04-09T22:17:01.706Z,7.30
2023-04-09T22:21:04.054Z,7.63
2023-04-09T22:25:07.016Z,7.57
2023-04-09T22:29:08.767Z,7.10
2023-04-09T22:33:10.634Z,6.97
2023-04-09T22:37:12.397Z,7.65
2023-04-09T22:41:15.900Z,6.57
2023-04-09T22:45:18.213Z,6.30
2023-04-09T22:49:19.942Z,6.83
2023-04-09T22:53:21.797Z,7.97
2023-04-09T22:57:23.470Z,7.57
2023-04-09T23:01:25.504Z,7.25
2023-04-09T23:05:27.445Z,7.20
2023-04-09T23:09:30.878Z,6.55
2023-04-09T23:13:32.674Z,7.13
2023-04-09T23:17:35.146Z,6.88
2023-04-09T23:21:37.075Z,7.60
2023-04-09T23:25:38.745Z,7.40
2023-04-09T23:29:40.414Z,7.25
2023-04-09T23:33:42.094Z,7.03
2023-04-09T23:37:43.965Z,7.28
2023-04-09T23:41:45.790Z,6.55
2023-04-09T23:45:49.817Z,7.47
2023-04-09T23:49:51.558Z,7.40
2023-04-09T23:53:53.453Z,6.97
2023-04-09T23:57:56.450Z,6.70
